createdAt,value
2022-11-29T00:04:11.508Z,13.33
2022-11-29T00:09:07.755Z,13.10
2022-11-29T00:14:04.104Z,12.67
2022-11-29T00:18:59.021Z,13.23
2022-11-29T00:23:53.714Z,12.83
2022-11-29T00:28:49.265Z,12.73
2022-11-29T00:33:42.675Z,13.03
2022-11-29T00:38:36.134Z,12.13
2022-11-29T00:43:30.937Z,12.37
2022-11-29T00:48:24.262Z,13.93
2022-11-29T00:53:17.774Z,12.63
2022-11-29T00:58:11.188Z,13.60
2022-11-29T01:03:06.013Z,14.00
2022-11-29T01:07:59.234Z,14.30
2022-11-29T01:12:52.737Z,13.63
2022-11-29T01:17:46.731Z,15.37
2022-11-29T01:22:41.696Z,13.40
2022-11-29T01:27:35.537Z,12.83
2022-11-29T01:32:28.819Z,12.63
2022-11-29T01:37:24.957Z,14.30
2022-11-29T01:42:19.675Z,13.13
2022-11-29T01:47:13.534Z,13.83
2022-11-29T01:52:10.731Z,13.87
2022-11-29T01:57:08.386Z,13.83
2022-11-29T02:02:07.381Z,13.23
2022-11-29T02:07:00.803Z,14.60
2022-11-29T02:12:15.728Z,14.33
2022-11-29T02:17:21.412Z,14.70
2022-11-29T02:22:20.273Z,15.00
2022-11-29T02:28:13.585Z,14.37
2022-11-29T02:33:42.880Z,14.40
2022-11-29T02:39:17.171Z,15.60
2022-11-29T02:44:46.271Z,15.50
2022-11-29T02:50:04.597Z,15.03
2022-11-29T02:55:05.967Z,16.13
2022-11-29T03:00:06.849Z,16.17
2022-11-29T03:05:11.498Z,15.50
2022-11-29T03:10:12.196Z,14.97
2022-11-29T03:15:18.309Z,15.00
2022-11-29T03:20:28.593Z,14.33
2022-11-29T03:25:27.686Z,14.98
2022-11-29T03:30:24.759Z,14.80
2022-11-29T03:35:26.056Z,14.10
2022-11-29T03:40:22.694Z,15.50
2022-11-29T03:45:24.130Z,15.47
2022-11-29T03:50:27.347Z,15.30
2022-11-29T03:55:34.066Z,16.43
2022-11-29T04:00:31.958Z,16.33
2022-11-29T04:05:54.581Z,16.37
2022-11-29T04:11:29.873Z,16.53
2022-11-29T04:16:52.718Z,16.13
2022-11-29T04:22:24.805Z,15.37
2022-11-29T04:27:34.566Z,16.50
2022-11-29T04:33:07.793Z,15.67
2022-11-29T04:38:27.581Z,15.53
2022-11-29T04:43:41.467Z,15.90
2022-11-29T04:49:00.414Z,16.93
2022-11-29T04:54:05.844Z,15.37
2022-11-29T04:59:05.472Z,17.63
2022-11-29T05:04:04.241Z,17.10
2022-11-29T05:09:12.895Z,15.93
2022-11-29T05:14:18.337Z,15.70
2022-11-29T05:19:51.509Z,15.53
2022-11-29T05:24:57.474Z,18.27
2022-11-29T05:29:56.649Z,15.30
2022-11-29T05:35:33.949Z,17.67
2022-11-29T05:40:43.088Z,16.23
2022-11-29T05:45:45.565Z,16.77
2022-11-29T05:50:43.423Z,16.97
2022-11-29T05:55:46.326Z,16.97
2022-11-29T06:00:49.139Z,18.83
2022-11-29T06:05:51.518Z,19.47
2022-11-29T06:11:07.948Z,19.20
2022-11-29T06:16:25.120Z,18.33
2022-11-29T06:21:32.781Z,19.80
2022-11-29T06:27:12.560Z,19.07
2022-11-29T06:32:23.023Z,18.65
2022-11-29T06:37:21.367Z,16.87
2022-11-29T06:42:16.044Z,18.30
2022-11-29T06:47:16.602Z,19.23
2022-11-29T06:57:25.202Z,18.70
2022-11-29T07:02:39.529Z,17.80
2022-11-29T07:07:35.590Z,18.53
2022-11-29T07:12:31.082Z,18.00
2022-11-29T07:17:30.397Z,15.67
2022-11-29T07:22:39.133Z,17.97
2022-11-29T07:28:06.442Z,19.27
2022-11-29T07:33:16.143Z,17.73
2022-11-29T07:38:22.237Z,19.70
2022-11-29T07:43:33.252Z,19.03
2022-11-29T07:53:24.560Z,19.23
2022-11-29T07:58:20.382Z,19.77
2022-11-29T08:03:14.147Z,19.47
2022-11-29T08:08:08.052Z,21.93
2022-11-29T08:13:02.134Z,19.43
2022-11-29T08:17:57.229Z,18.60
2022-11-29T08:23:00.200Z,19.00
2022-11-29T08:27:56.813Z,19.67
2022-11-29T08:32:54.105Z,18.40
2022-11-29T08:37:51.818Z,17.43
2022-11-29T08:42:47.705Z,18.00
2022-11-29T08:47:45.106Z,18.17
2022-11-29T08:53:00.943Z,18.10
2022-11-29T08:58:07.266Z,17.83
2022-11-29T09:03:29.980Z,19.77
2022-11-29T09:08:24.752Z,20.60
2022-11-29T09:13:26.094Z,18.53
2022-11-29T09:18:29.101Z,17.77
2022-11-29T09:23:22.691Z,18.57
2022-11-29T09:28:17.939Z,14.70
2022-11-29T09:33:15.514Z,14.73
2022-11-29T09:38:08.941Z,15.07
2022-11-29T09:43:07.931Z,15.40
2022-11-29T09:48:25.946Z,15.73
2022-11-29T09:53:43.689Z,14.70
2022-11-29T09:58:46.470Z,17.50
2022-11-29T10:03:45.074Z,17.20
2022-11-29T10:08:46.026Z,17.23
2022-11-29T10:13:50.247Z,15.67
2022-11-29T10:18:51.202Z,15.33
2022-11-29T10:23:48.916Z,13.90
2022-11-29T10:28:48.811Z,14.70
2022-11-29T10:33:43.330Z,14.10
2022-11-29T10:38:37.985Z,14.50
2022-11-29T10:43:31.605Z,14.37
2022-11-29T10:48:29.012Z,15.13
2022-11-29T10:53:25.841Z,13.83
2022-11-29T10:58:27.973Z,13.47
2022-11-29T11:03:36.179Z,13.17
2022-11-29T11:08:30.832Z,12.40
2022-11-29T11:13:27.565Z,12.27
2022-11-29T11:18:23.543Z,13.20
2022-11-29T11:23:31.841Z,13.87
2022-11-29T11:28:39.115Z,13.23
2022-11-29T11:33:39.131Z,13.57
2022-11-29T11:38:34.539Z,12.67
2022-11-29T11:43:29.875Z,17.73
2022-11-29T11:48:26.375Z,14.07
2022-11-29T11:53:24.390Z,14.30
2022-11-29T11:58:50.169Z,14.03
2022-11-29T12:03:56.236Z,13.43
2022-11-29T12:08:50.846Z,13.83
2022-11-29T12:13:53.942Z,13.37
2022-11-29T12:18:54.716Z,14.07
2022-11-29T12:28:44.472Z,12.93
2022-11-29T12:33:48.429Z,11.13
2022-11-29T12:39:04.055Z,11.80
2022-11-29T12:44:14.041Z,13.10
2022-11-29T12:49:18.712Z,13.50
2022-11-29T12:54:37.099Z,13.10
2022-11-29T12:59:46.763Z,11.40
2022-11-29T13:04:59.726Z,11.77
2022-11-29T13:10:18.372Z,13.80
2022-11-29T13:15:16.930Z,12.73
2022-11-29T13:20:25.085Z,14.93
2022-11-29T13:25:22.724Z,16.23
2022-11-29T13:30:17.008Z,12.47
2022-11-29T13:35:22.779Z,11.73
2022-11-29T13:40:27.151Z,15.23
2022-11-29T13:45:26.249Z,13.40
2022-11-29T13:50:43.945Z,11.97
2022-11-29T13:55:46.563Z,10.97
2022-11-29T14:00:52.384Z,14.00
2022-11-29T14:05:49.953Z,13.03
2022-11-29T14:10:49.248Z,12.10
2022-11-29T14:15:46.301Z,11.87
2022-11-29T14:20:56.641Z,14.23
2022-11-29T14:26:34.066Z,32.03
2022-11-29T14:31:55.702Z,14.90
2022-11-29T14:36:53.204Z,15.00
2022-11-29T14:41:56.876Z,18.30
2022-11-29T14:47:00.908Z,11.52
2022-11-29T14:52:10.694Z,13.50
2022-11-29T14:57:33.549Z,14.85
2022-11-29T15:02:33.804Z,15.37
2022-11-29T15:07:33.134Z,15.38
2022-11-29T15:12:31.477Z,14.93
2022-11-29T15:17:32.222Z,13.57
2022-11-29T15:22:39.560Z,15.10
2022-11-29T15:27:37.362Z,12.13
2022-11-29T15:32:34.263Z,12.98
2022-11-29T15:37:44.687Z,15.33
2022-11-29T15:42:51.274Z,12.68
2022-11-29T15:47:44.576Z,15.83
2022-11-29T15:52:41.233Z,14.97
2022-11-29T15:57:41.433Z,19.20
2022-11-29T16:02:37.245Z,17.13
2022-11-29T16:07:34.373Z,15.93
2022-11-29T16:12:29.299Z,19.50
2022-11-29T16:17:23.083Z,19.40
2022-11-29T16:22:22.686Z,15.67
2022-11-29T16:27:16.378Z,13.07
2022-11-29T16:32:27.294Z,16.07
2022-11-29T16:37:24.049Z,16.65
2022-11-29T16:42:25.151Z,19.55
2022-11-29T16:47:24.929Z,17.07
2022-11-29T16:52:25.413Z,19.13
2022-11-29T16:57:19.990Z,16.98
2022-11-29T17:02:14.093Z,19.95
2022-11-29T17:07:10.842Z,18.07
2022-11-29T17:12:04.496Z,17.67
2022-11-29T17:16:59.987Z,18.50
2022-11-29T17:21:55.955Z,18.27
2022-11-29T17:26:51.301Z,17.97
2022-11-29T17:31:45.183Z,17.45
2022-11-29T17:36:38.973Z,18.77
2022-11-29T17:41:36.542Z,16.83
2022-11-29T17:46:38.111Z,16.83
2022-11-29T17:56:45.349Z,17.75
2022-11-29T18:01:43.522Z,17.17
2022-11-29T18:06:41.930Z,16.83
2022-11-29T18:11:45.343Z,19.27
2022-11-29T18:16:43.090Z,17.73
2022-11-29T18:21:38.309Z,26.67
2022-11-29T18:26:33.929Z,19.10
2022-11-29T18:31:28.914Z,15.13
2022-11-29T18:36:26.091Z,16.10
2022-11-29T18:41:23.340Z,15.60
2022-11-29T18:46:20.100Z,15.97
2022-11-29T18:51:15.630Z,14.30
2022-11-29T18:56:15.755Z,14.30
2022-11-29T19:01:14.206Z,14.32
2022-11-29T19:06:13.092Z,15.43
2022-11-29T19:11:09.364Z,16.27
2022-11-29T19:16:05.448Z,17.40
2022-11-29T19:21:06.018Z,15.73
2022-11-29T19:26:21.708Z,14.18
2022-11-29T19:31:19.500Z,13.33
2022-11-29T19:36:14.922Z,13.07
2022-11-29T19:41:17.319Z,13.75
2022-11-29T19:46:32.415Z,15.87
2022-11-29T19:51:30.629Z,15.30
2022-11-29T19:56:39.849Z,15.33
2022-11-29T20:01:50.780Z,14.10
2022-11-29T20:06:44.865Z,12.97
2022-11-29T20:11:40.172Z,12.03
2022-11-29T20:16:34.701Z,13.10
2022-11-29T20:21:31.538Z,13.30
2022-11-29T20:26:36.151Z,14.00
2022-11-29T20:31:30.554Z,15.97
2022-11-29T20:36:46.182Z,12.67
2022-11-29T20:41:53.549Z,15.10
2022-11-29T20:46:51.978Z,12.87
2022-11-29T20:52:10.689Z,13.07
2022-11-29T20:57:12.436Z,13.33
2022-11-29T21:02:07.795Z,11.70
2022-11-29T21:07:07.795Z,12.53
2022-11-29T21:12:01.883Z,11.63
2022-11-29T21:16:56.011Z,13.03
2022-11-29T21:22:03.387Z,16.77
2022-11-29T21:27:12.413Z,12.90
2022-11-29T21:32:24.095Z,12.27
2022-11-29T21:37:38.889Z,13.37
2022-11-29T21:42:54.238Z,12.13
2022-11-29T21:47:49.658Z,13.43
2022-11-29T21:52:48.880Z,14.40
2022-11-29T21:57:50.658Z,13.60
2022-11-29T22:02:46.809Z,13.60
2022-11-29T22:07:40.688Z,13.43
2022-11-29T22:12:35.241Z,13.90
2022-11-29T22:17:30.169Z,11.73
2022-11-29T22:22:28.247Z,11.10
2022-11-29T22:27:22.085Z,11.40
2022-11-29T22:32:19.912Z,12.00
2022-11-29T22:37:14.760Z,12.07
2022-11-29T22:42:08.036Z,13.10
2022-11-29T22:47:01.916Z,13.77
2022-11-29T22:51:58.801Z,14.07
2022-11-29T22:57:00.627Z,13.63
2022-11-29T23:01:56.931Z,13.73
2022-11-29T23:06:51.948Z,14.60
2022-11-29T23:11:53.475Z,14.00
2022-11-29T23:16:50.317Z,14.53
2022-11-29T23:21:45.978Z,15.40
2022-11-29T23:26:42.739Z,15.40
2022-11-29T23:31:44.854Z,14.80
2022-11-29T23:36:44.783Z,16.10
2022-11-29T23:42:35.718Z,15.60
2022-11-29T23:47:29.253Z,15.73
2022-11-29T23:52:26.978Z,13.90
2022-11-29T23:57:20.478Z,13.63
